Time;durP1;ratioP1;P1;durP2;ratioP2;P2;SDS_P1;SDS_P2;PMS_P1;PMS_P2;Temp;Humidity;BMP_temperature;BMP_pressure;BME280_temperature;BME280_humidity;BME280_pressure;Samples;Min_cycle;Max_cycle;Signal;HPM_P1;HPM_P2
2022/06/01 04:11:43;;;;;;;11.25;6.87;;;;;;;14.03;100.00;100297.97;5302742;33;33544;-87
2022/06/01 04:14:46;;;;;;;12.52;7.12;;;;;;;14.15;100.00;100290.94;5308510;33;33978;-87
2022/06/01 04:17:48;;;;;;;9.82;5.95;;;;;;;14.18;100.00;100281.56;5307816;33;33669;-87
2022/06/01 04:20:53;;;;;;;13.68;6.68;;;;;;;14.13;100.00;100262.38;5307746;33;33476;-87
2022/06/01 04:24:00;;;;;;;11.18;6.40;;;;;;;14.14;100.00;100270.31;5307745;33;34479;-87
2022/06/01 04:27:04;;;;;;;12.77;7.32;;;;;;;14.17;100.00;100275.34;5307051;33;34805;-87
2022/06/01 04:30:09;;;;;;;12.68;7.00;;;;;;;14.22;100.00;100283.69;5310564;33;34721;-87
2022/06/01 04:33:18;;;;;;;16.08;7.47;;;;;;;14.28;100.00;100287.44;5312702;33;34754;-87
2022/06/01 04:36:39;;;;;;;12.68;6.85;;;;;;;14.41;100.00;100290.19;5312695;33;35360;-87
2022/06/01 04:39:42;;;;;;;10.27;6.75;;;;;;;14.48;100.00;100284.78;5312247;33;34026;-87
2022/06/01 04:42:45;;;;;;;10.30;7.07;;;;;;;14.59;100.00;100291.50;5317217;33;34459;-87
2022/06/01 04:45:53;;;;;;;11.88;6.97;;;;;;;14.53;100.00;100293.16;5313223;33;34071;-87
2022/06/01 04:48:55;;;;;;;12.40;7.32;;;;;;;14.59;100.00;100300.44;5323144;33;33667;-86
2022/06/01 04:51:58;;;;;;;16.17;7.65;;;;;;;14.66;100.00;100303.19;5312082;33;33958;-87
2022/06/01 04:55:02;;;;;;;12.20;7.22;;;;;;;14.73;100.00;100293.19;5311997;33;34535;-87
2022/06/01 04:58:04;;;;;;;14.25;8.13;;;;;;;14.92;100.00;100288.81;5312060;33;34605;-87
2022/06/01 05:01:07;;;;;;;14.98;8.30;;;;;;;15.03;100.00;100280.03;5312012;33;34729;-87
2022/06/01 05:04:10;;;;;;;14.07;8.88;;;;;;;15.16;100.00;100266.47;5313187;33;34498;-87
2022/06/01 05:07:13;;;;;;;17.80;9.55;;;;;;;15.16;100.00;100284.63;5323448;33;32129;-87
2022/06/01 05:10:16;;;;;;;16.62;8.65;;;;;;;15.27;100.00;100284.00;5310896;33;34042;-87
2022/06/01 05:13:19;;;;;;;16.15;8.73;;;;;;;15.31;100.00;100276.28;5312321;33;34528;-87
2022/06/01 05:16:23;;;;;;;17.65;10.00;;;;;;;15.51;100.00;100277.06;5311920;33;33913;-87
2022/06/01 05:19:27;;;;;;;17.00;9.73;;;;;;;15.69;100.00;100272.88;5300992;33;33701;-87
2022/06/01 05:22:30;;;;;;;19.40;11.40;;;;;;;15.93;100.00;100280.28;5294066;33;34845;-87
2022/06/01 05:25:33;;;;;;;19.12;11.65;;;;;;;16.07;100.00;100294.66;5294133;33;34336;-87
2022/06/01 05:28:36;;;;;;;23.17;12.30;;;;;;;16.13;100.00;100287.50;5299794;33;33944;-87
2022/06/01 05:31:38;;;;;;;21.05;12.68;;;;;;;16.29;100.00;100282.41;5306872;33;34473;-87
2022/06/01 05:34:41;;;;;;;22.17;12.02;;;;;;;16.40;100.00;100286.31;5312114;33;34161;-87
2022/06/01 05:37:44;;;;;;;21.25;11.85;;;;;;;16.56;100.00;100298.56;5311734;33;34772;-87
2022/06/01 05:40:47;;;;;;;22.33;11.73;;;;;;;16.82;100.00;100303.00;5306359;33;34600;-87
2022/06/01 05:43:51;;;;;;;21.48;11.90;;;;;;;16.84;100.00;100309.03;5303521;33;32363;-86
2022/06/01 05:46:56;;;;;;;19.00;10.88;;;;;;;16.81;100.00;100314.91;5308410;33;34026;-86
2022/06/01 05:49:58;;;;;;;20.65;11.93;;;;;;;16.73;100.00;100315.16;5323039;33;35319;-86
2022/06/01 05:53:02;;;;;;;18.17;11.05;;;;;;;16.62;100.00;100324.03;5316345;33;36890;-90
2022/06/01 05:56:04;;;;;;;19.12;11.23;;;;;;;16.64;100.00;100324.63;5300732;33;34245;-91
2022/06/01 05:59:07;;;;;;;20.10;11.15;;;;;;;16.76;100.00;100322.94;5298623;33;33979;-88
2022/06/01 06:02:11;;;;;;;20.48;10.55;;;;;;;16.83;100.00;100323.69;5294042;33;33244;-87
2022/06/01 06:08:37;;;;;;;20.42;10.57;;;;;;;16.98;100.00;100329.66;5300648;33;32390;-87
2022/06/01 06:11:47;;;;;;;19.85;11.07;;;;;;;16.95;100.00;100331.97;5294529;33;34688;-87
2022/06/01 06:14:50;;;;;;;17.83;10.80;;;;;;;16.76;100.00;100326.47;5301001;33;34160;-87
2022/06/01 06:17:53;;;;;;;19.58;11.32;;;;;;;16.74;100.00;100333.97;5301593;33;33159;-87
2022/06/01 06:20:56;;;;;;;20.70;11.10;;;;;;;16.70;100.00;100334.63;5305451;33;34278;-86
2022/06/01 06:24:01;;;;;;;19.00;10.18;;;;;;;16.63;100.00;100337.38;5305942;33;32298;-87
2022/06/01 06:27:04;;;;;;;20.77;11.10;;;;;;;16.62;100.00;100343.88;5307511;33;34863;-87
2022/06/01 06:30:08;;;;;;;19.58;10.85;;;;;;;16.64;100.00;100339.03;5304458;33;34807;-87
2022/06/01 06:33:11;;;;;;;16.12;8.73;;;;;;;16.71;100.00;100334.41;5303127;33;34300;-87
2022/06/01 06:36:14;;;;;;;15.02;7.55;;;;;;;16.94;100.00;100343.91;5293381;33;34654;-89
2022/06/01 06:39:17;;;;;;;10.88;6.37;;;;;;;17.04;100.00;100340.69;5301600;33;34186;-89
2022/06/01 06:42:20;;;;;;;13.45;7.75;;;;;;;17.02;100.00;100343.62;5297844;33;33973;-88
2022/06/01 06:45:22;;;;;;;14.75;7.47;;;;;;;17.05;100.00;100362.22;5295931;33;34075;-87
2022/06/01 06:48:26;;;;;;;15.02;8.25;;;;;;;17.04;100.00;100366.00;5291235;33;33660;-87
2022/06/01 06:51:29;;;;;;;12.98;7.35;;;;;;;17.10;100.00;100370.56;5302478;33;34306;-87
2022/06/01 06:54:34;;;;;;;11.10;7.45;;;;;;;17.27;100.00;100365.41;5292173;33;34035;-86
2022/06/01 06:57:37;;;;;;;13.60;7.28;;;;;;;17.44;100.00;100369.25;5292921;33;34376;-87
2022/06/01 07:00:40;;;;;;;14.95;6.68;;;;;;;17.64;100.00;100382.69;5305917;33;34120;-87
2022/06/01 07:03:43;;;;;;;10.77;6.15;;;;;;;17.72;100.00;100380.72;5296333;33;33061;-86
2022/06/01 07:06:46;;;;;;;15.07;7.37;;;;;;;17.82;100.00;100387.34;5292643;33;34049;-87
2022/06/01 07:09:49;;;;;;;11.48;6.85;;;;;;;18.17;100.00;100385.94;5294600;33;34120;-86
2022/06/01 07:12:52;;;;;;;13.57;6.82;;;;;;;18.75;98.97;100380.78;5292487;33;35243;-86
2022/06/01 07:16:04;;;;;;;12.32;6.80;;;;;;;18.85;94.95;100390.31;5298941;33;33624;-86
2022/06/01 07:19:08;;;;;;;11.43;6.50;;;;;;;18.95;95.34;100398.75;5302318;33;33690;-85
2022/06/01 07:22:11;;;;;;;11.10;6.32;;;;;;;19.10;94.56;100399.16;5291760;33;33502;-85
2022/06/01 07:25:14;;;;;;;14.35;6.03;;;;;;;19.04;93.62;100394.62;5298827;33;33410;-85
2022/06/01 07:28:17;;;;;;;9.77;5.65;;;;;;;19.40;93.32;100398.28;5301368;33;32648;-85
2022/06/01 07:31:20;;;;;;;8.43;5.28;;;;;;;19.58;90.31;100392.69;5295307;33;32652;-85
2022/06/01 07:34:23;;;;;;;6.30;4.32;;;;;;;19.33;88.86;100392.06;5301997;33;34584;-85
2022/06/01 07:44:14;;;;;;;6.35;4.32;;;;;;;19.17;88.18;100391.69;5298000;33;34508;-86
2022/06/01 07:47:17;;;;;;;4.53;3.83;;;;;;;19.18;90.74;100397.97;5301823;33;33628;-85
2022/06/01 07:50:40;;;;;;;5.05;3.72;;;;;;;19.26;88.24;100400.38;5302232;33;34738;-85
2022/06/01 07:53:48;;;;;;;4.80;3.80;;;;;;;19.33;87.76;100397.53;5294870;33;35338;-86
2022/06/01 07:56:51;;;;;;;4.40;3.28;;;;;;;19.56;84.92;100396.72;5295055;33;33664;-85
2022/06/01 07:59:54;;;;;;;5.45;3.65;;;;;;;19.63;84.08;100392.81;5302242;33;34721;-84
2022/06/01 08:02:57;;;;;;;4.75;3.20;;;;;;;19.83;85.80;100399.84;5294732;33;34441;-84
2022/06/01 08:06:01;;;;;;;5.30;3.15;;;;;;;20.03;80.75;100402.22;5298173;33;34767;-84
2022/06/01 08:09:05;;;;;;;5.75;3.25;;;;;;;20.11;81.55;100405.41;5301338;33;33878;-84
2022/06/01 08:15:30;;;;;;;3.53;3.20;;;;;;;20.14;81.53;100410.37;5304324;33;35244;-84
2022/06/01 08:18:34;;;;;;;3.85;3.17;;;;;;;20.08;81.21;100416.81;5304432;33;33916;-85
2022/06/01 08:21:37;;;;;;;3.67;2.80;;;;;;;20.38;82.63;100408.44;5320122;33;34464;-83
2022/06/01 08:24:41;;;;;;;5.03;3.00;;;;;;;20.27;80.62;100414.78;5298024;33;34186;-83
2022/06/01 08:27:45;;;;;;;3.37;2.87;;;;;;;20.57;78.27;100413.78;5294816;33;34393;-83
2022/06/01 08:30:49;;;;;;;3.20;2.40;;;;;;;20.75;78.84;100413.59;5299745;33;33995;-83
2022/06/01 08:33:52;;;;;;;4.22;2.33;;;;;;;20.75;77.48;100415.50;5296841;33;34742;-83
2022/06/01 08:36:54;;;;;;;2.60;2.35;;;;;;;20.46;77.39;100420.06;5310090;33;33948;-83
2022/06/01 08:39:57;;;;;;;2.90;2.20;;;;;;;20.50;77.72;100426.72;5307605;33;34858;-83
2022/06/01 08:43:09;;;;;;;4.18;2.40;;;;;;;20.64;78.13;100419.09;5295726;33;34074;-83
2022/06/01 08:46:13;;;;;;;3.00;2.67;;;;;;;20.74;75.84;100417.41;5294467;33;33460;-83
2022/06/01 08:49:24;;;;;;;2.92;2.40;;;;;;;20.98;75.68;100423.59;5297181;33;33966;-86
2022/06/01 08:52:28;;;;;;;6.05;2.47;;;;;;;21.14;76.41;100421.94;5300104;33;34101;-88
2022/06/01 08:55:44;;;;;;;2.55;2.00;;;;;;;21.25;75.15;100412.84;5300428;33;33981;-84
2022/06/01 08:59:01;;;;;;;2.33;1.87;;;;;;;21.65;73.16;100417.38;5291688;33;34135;-83
2022/06/01 09:02:10;;;;;;;3.97;2.35;;;;;;;21.42;72.78;100421.09;5302287;33;33945;-83
2022/06/01 09:05:40;;;;;;;3.92;2.42;;;;;;;21.73;71.63;100421.59;5300220;33;34001;-83
2022/06/01 09:08:46;;;;;;;4.35;2.65;;;;;;;22.00;71.98;100429.12;5298719;33;34122;-83
2022/06/01 09:11:49;;;;;;;2.42;1.87;;;;;;;22.23;70.34;100420.72;5293624;33;33065;-83
2022/06/01 09:14:56;;;;;;;2.35;1.77;;;;;;;22.39;71.47;100428.03;5302099;33;34058;-83
2022/06/01 09:18:00;;;;;;;2.17;1.55;;;;;;;22.23;67.04;100431.69;5297462;33;34300;-83
2022/06/01 09:24:32;;;;;;;2.10;1.90;;;;;;;22.71;67.66;100432.81;5300955;33;34426;-83
2022/06/01 09:27:48;;;;;;;2.70;1.80;;;;;;;22.63;66.53;100430.53;5312572;33;32221;-83
2022/06/01 09:31:02;;;;;;;3.25;1.65;;;;;;;22.67;65.88;100437.16;5288181;33;34676;-84
2022/06/01 09:34:22;;;;;;;1.70;1.40;;;;;;;22.86;67.79;100438.47;5294481;33;35877;-83
2022/06/01 09:37:31;;;;;;;2.20;2.00;;;;;;;22.76;65.35;100443.84;5296870;33;35469;-84
2022/06/01 09:40:36;;;;;;;1.80;1.67;;;;;;;22.99;65.71;100439.19;5293549;33;33954;-83
2022/06/01 09:43:41;;;;;;;2.87;2.30;;;;;;;23.47;62.41;100442.94;5306378;33;35375;-84
2022/06/01 09:46:47;;;;;;;3.95;1.83;;;;;;;23.61;61.70;100441.41;5293588;33;34043;-83
2022/06/01 09:49:53;;;;;;;3.42;1.83;;;;;;;23.78;61.53;100444.06;5297118;33;35339;-84
2022/06/01 09:53:00;;;;;;;2.03;1.80;;;;;;;23.20;63.26;100443.81;5305529;33;34707;-84
2022/06/01 09:56:04;;;;;;;1.58;1.48;;;;;;;22.81;62.99;100445.81;5301655;33;32489;-84
2022/06/01 10:06:30;;;;;;;2.08;1.87;;;;;;;23.67;59.92;100434.03;5293353;33;34252;-84
2022/06/01 10:09:34;;;;;;;1.77;1.52;;;;;;;23.57;58.61;100442.19;5295009;33;32521;-84
2022/06/01 10:12:44;;;;;;;3.92;1.85;;;;;;;23.72;60.82;100434.94;5298000;33;35347;-83
2022/06/01 10:15:51;;;;;;;2.12;1.60;;;;;;;24.42;60.51;100437.53;5306037;33;33100;-83
2022/06/01 10:18:58;;;;;;;1.70;1.55;;;;;;;24.47;56.88;100434.00;5291414;33;33616;-84
2022/06/01 10:22:36;;;;;;;1.98;1.52;;;;;;;24.17;57.06;100436.31;5297679;33;34073;-88
2022/06/01 10:25:51;;;;;;;2.28;1.60;;;;;;;24.55;55.67;100428.81;5298859;33;34319;-83
2022/06/01 10:29:05;;;;;;;2.08;1.40;;;;;;;25.01;53.90;100426.19;5295587;33;34072;-83
2022/06/01 10:32:15;;;;;;;1.65;1.55;;;;;;;25.18;52.35;100427.88;5297099;33;33911;-84
2022/06/01 10:36:00;;;;;;;1.52;1.37;;;;;;;25.28;51.19;100427.91;5299271;33;33831;-84
2022/06/01 10:39:12;;;;;;;1.92;1.27;;;;;;;25.43;49.91;100425.16;5290232;33;33953;-84
2022/06/01 10:46:18;;;;;;;1.40;1.30;;;;;;;25.66;49.53;100428.47;5296787;33;33632;-89
2022/06/01 10:49:43;;;;;;;2.05;1.00;;;;;;;26.50;51.85;100428.84;5296681;33;34970;-85
2022/06/01 10:52:54;;;;;;;1.17;1.17;;;;;;;27.42;47.26;100436.63;5296578;33;32499;-85
2022/06/01 10:55:57;;;;;;;1.50;1.40;;;;;;;27.96;43.29;100430.06;5297144;33;34349;-85
2022/06/01 10:59:07;;;;;;;1.25;1.17;;;;;;;27.63;43.40;100432.56;5298479;33;34923;-85
2022/06/01 11:02:26;;;;;;;1.48;1.37;;;;;;;27.92;42.56;100435.34;5312141;33;34277;-85
2022/06/01 11:06:20;;;;;;;1.23;1.12;;;;;;;28.40;40.65;100438.16;5305661;33;32961;-84
2022/06/01 11:09:43;;;;;;;1.75;1.40;;;;;;;28.39;40.72;100433.72;5284357;33;34001;-84
2022/06/01 11:12:55;;;;;;;2.50;1.17;;;;;;;28.88;37.98;100431.75;5297210;33;35397;-89
2022/06/01 11:16:00;;;;;;;1.10;1.00;;;;;;;29.59;36.11;100438.13;5306040;33;35436;-87
2022/06/01 11:19:22;;;;;;;0.90;0.90;;;;;;;29.67;36.93;100431.94;5291917;33;33709;-85
2022/06/01 11:22:28;;;;;;;0.95;0.95;;;;;;;29.90;34.44;100432.91;5293747;33;32403;-85
2022/06/01 11:25:54;;;;;;;0.80;0.80;;;;;;;30.80;34.12;100424.16;5307236;33;34942;-84
2022/06/01 11:29:34;;;;;;;1.15;1.10;;;;;;;31.36;34.13;100423.72;5298048;33;34363;-85
2022/06/01 11:32:42;;;;;;;0.80;0.80;;;;;;;31.79;29.62;100425.94;5289565;33;34768;-85
2022/06/01 11:36:00;;;;;;;0.93;0.90;;;;;;;32.17;28.49;100422.69;5311415;33;34447;-85
2022/06/01 11:39:25;;;;;;;1.12;0.98;;;;;;;32.50;28.53;100425.97;5307770;33;33860;-84
2022/06/01 11:42:37;;;;;;;0.93;0.93;;;;;;;33.45;30.69;100404.84;5301581;33;34532;-85
2022/06/01 11:45:46;;;;;;;0.90;0.90;;;;;;;34.64;26.86;100405.09;5298468;33;35125;-89
2022/06/01 11:49:11;;;;;;;1.52;1.00;;;;;;;34.46;27.01;100407.16;5303673;33;33545;-90
2022/06/01 11:52:21;;;;;;;0.90;0.90;;;;;;;34.11;26.62;100409.28;5290264;33;33282;-85
2022/06/01 11:55:36;;;;;;;0.60;0.60;;;;;;;34.80;25.82;100408.91;5302809;33;32419;-85
2022/06/01 11:58:42;;;;;;;0.80;0.80;;;;;;;35.17;26.22;100403.53;5306380;33;33743;-85
2022/06/01 12:01:54;;;;;;;2.65;0.88;;;;;;;35.42;25.43;100405.28;5306294;33;33953;-85
2022/06/01 12:05:19;;;;;;;0.50;0.50;;;;;;;35.60;25.55;100402.28;5311788;33;33856;-85
2022/06/01 12:08:30;;;;;;;1.27;1.10;;;;;;;35.97;23.72;100402.38;5298850;33;34000;-86
2022/06/01 12:11:39;;;;;;;0.70;0.70;;;;;;;35.70;25.35;100407.47;5294781;33;34474;-85
2022/06/01 12:14:56;;;;;;;0.77;0.77;;;;;;;36.60;23.02;100410.47;5298524;33;33491;-85
2022/06/01 12:18:11;;;;;;;0.93;0.93;;;;;;;35.66;24.65;100409.34;5289678;33;34025;-85
2022/06/01 12:21:27;;;;;;;1.27;1.02;;;;;;;36.75;22.66;100401.31;5298078;33;35457;-85
2022/06/01 12:28:34;;;;;;;1.27;1.05;;;;;;;37.33;21.79;100410.28;5305120;33;33935;-84
2022/06/01 12:31:40;;;;;;;0.70;0.70;;;;;;;37.05;22.68;100399.03;5301809;33;32380;-85
2022/06/01 12:34:50;;;;;;;0.85;0.85;;;;;;;37.03;22.33;100397.75;5301572;33;33991;-86
2022/06/01 12:38:12;;;;;;;2.37;0.80;;;;;;;37.19;21.89;100398.62;5296668;33;33723;-85
2022/06/01 12:41:19;;;;;;;0.88;0.82;;;;;;;36.88;21.95;100397.31;5293919;33;35109;-85
2022/06/01 12:44:22;;;;;;;1.00;1.00;;;;;;;37.51;21.18;100390.31;5300874;33;34514;-85
2022/06/01 12:47:41;;;;;;;0.73;0.68;;;;;;;37.19;21.17;100395.81;5301479;33;35247;-85
2022/06/01 12:50:50;;;;;;;0.73;0.60;;;;;;;38.25;20.25;100390.63;5291623;33;32531;-85
2022/06/01 12:53:53;;;;;;;0.90;0.90;;;;;;;39.21;19.79;100395.59;5302836;33;33651;-85
2022/06/01 12:56:57;;;;;;;0.80;0.80;;;;;;;39.68;18.89;100390.88;5294212;33;32739;-85
2022/06/01 13:00:02;;;;;;;0.70;0.70;;;;;;;40.42;18.75;100395.34;5307237;33;34544;-84
2022/06/01 13:03:12;;;;;;;0.63;0.63;;;;;;;39.63;18.91;100382.72;5294754;33;33828;-84
2022/06/01 13:06:20;;;;;;;1.85;0.80;;;;;;;40.02;18.70;100377.78;5296152;33;164564;-83
2022/06/01 13:09:32;;;;;;;0.82;0.82;;;;;;;38.24;20.82;100372.13;5298628;33;34040;-89
2022/06/01 13:12:35;;;;;;;1.15;0.68;;;;;;;34.86;25.42;100381.56;5307341;33;33874;-86
2022/06/01 13:15:40;;;;;;;1.02;1.02;;;;;;;36.78;21.86;100384.59;5300369;33;34192;-86
2022/06/01 13:18:45;;;;;;;1.08;0.88;;;;;;;38.62;20.44;100377.03;5307502;33;34010;-86
2022/06/01 13:21:59;;;;;;;1.17;1.00;;;;;;;39.85;18.51;100370.66;5316797;33;33894;-86
2022/06/01 13:25:12;;;;;;;0.85;0.70;;;;;;;39.97;18.80;100375.28;5298825;33;34711;-86
2022/06/01 13:28:16;;;;;;;0.60;0.55;;;;;;;37.01;20.19;100369.25;5305848;33;35379;-86
2022/06/01 13:31:19;;;;;;;0.68;0.65;;;;;;;37.07;19.95;100374.25;5307172;33;33908;-86
2022/06/01 13:34:28;;;;;;;0.50;0.50;;;;;;;39.13;19.13;100373.28;5303856;33;34493;-85
2022/06/01 13:37:43;;;;;;;2.55;0.95;;;;;;;39.71;18.36;100376.03;5293327;33;34611;-85
2022/06/01 13:40:54;;;;;;;0.95;0.80;;;;;;;39.15;18.10;100370.94;5305403;33;34025;-85
2022/06/01 13:43:57;;;;;;;0.68;0.68;;;;;;;40.25;17.73;100366.50;5303120;33;33816;-83
2022/06/01 13:47:01;;;;;;;0.60;0.60;;;;;;;38.83;18.90;100356.97;5297958;33;32879;-83
2022/06/01 13:50:22;;;;;;;0.60;0.60;;;;;;;39.47;17.61;100351.03;5296098;33;32481;-83
2022/06/01 13:53:31;;;;;;;0.73;0.65;;;;;;;39.37;18.05;100347.62;5308482;33;34147;-83
2022/06/01 13:56:43;;;;;;;0.65;0.50;;;;;;;38.74;18.04;100348.75;5304259;33;33822;-85
2022/06/01 14:00:03;;;;;;;0.60;0.55;;;;;;;37.56;20.18;100350.69;5304783;33;34628;-83
2022/06/01 14:03:12;;;;;;;0.62;0.62;;;;;;;37.40;19.71;100348.66;5304685;33;34818;-83
2022/06/01 14:06:15;;;;;;;0.60;0.60;;;;;;;35.18;20.97;100347.19;5314713;33;34817;-84
2022/06/01 14:09:23;;;;;;;0.82;0.60;;;;;;;33.83;24.39;100349.06;5303552;33;34161;-84
2022/06/01 14:12:27;;;;;;;1.58;0.80;;;;;;;32.88;23.77;100341.72;5289947;33;34085;-84
2022/06/01 14:15:35;;;;;;;0.50;0.50;;;;;;;31.91;25.17;100346.56;5291432;33;34575;-86
2022/06/01 14:18:39;;;;;;;0.57;0.57;;;;;;;31.25;28.10;100335.25;5306702;33;33503;-86
2022/06/01 14:21:42;;;;;;;6.30;1.02;;;;;;;30.39;28.02;100336.97;5301557;33;33885;-86
2022/06/01 14:31:34;;;;;;;0.60;0.60;;;;;;;28.75;30.53;100339.06;5308242;33;35468;-86
2022/06/01 14:34:38;;;;;;;0.75;0.75;;;;;;;28.44;32.07;100334.00;5300946;33;34146;-86
2022/06/01 14:37:42;;;;;;;1.33;0.88;;;;;;;28.35;31.03;100340.47;5296809;33;33993;-86
2022/06/01 14:40:44;;;;;;;0.80;0.80;;;;;;;28.18;31.06;100335.44;5301110;33;33895;-86
2022/06/01 14:43:47;;;;;;;2.75;1.02;;;;;;;27.92;34.19;100326.62;5305394;33;33476;-86
2022/06/01 14:46:51;;;;;;;0.80;0.80;;;;;;;27.83;32.75;100331.16;5303459;33;34229;-86
2022/06/01 14:49:55;;;;;;;0.80;0.80;;;;;;;27.59;28.56;100337.47;5289111;33;34886;-86
2022/06/01 14:53:04;;;;;;;0.70;0.70;;;;;;;27.51;29.11;100333.38;5289988;33;33644;-86
2022/06/01 14:56:08;;;;;;;1.00;0.90;;;;;;;27.31;28.65;100337.16;5285842;33;34257;-86
2022/06/01 14:59:11;;;;;;;0.68;0.68;;;;;;;27.24;29.51;100333.91;5289138;33;34602;-86
2022/06/01 15:02:17;;;;;;;1.05;0.95;;;;;;;27.12;28.35;100333.44;5289181;33;34713;-86
2022/06/01 15:05:25;;;;;;;0.70;0.70;;;;;;;26.95;29.98;100327.50;5289307;33;33968;-86
2022/06/01 15:08:31;;;;;;;3.42;0.80;;;;;;;26.88;30.04;100322.28;5288499;33;33979;-86
2022/06/01 15:11:33;;;;;;;0.60;0.60;;;;;;;26.78;28.78;100320.44;5367914;28;33953;-87
2022/06/01 15:14:37;;;;;;;0.70;0.70;;;;;;;26.87;27.98;100321.47;5347739;33;33596;-87
2022/06/01 15:17:39;;;;;;;1.70;0.85;;;;;;;26.95;30.64;100324.75;5361635;33;33991;-86
2022/06/01 15:20:42;;;;;;;1.00;0.60;;;;;;;27.12;29.99;100319.63;5362024;33;34668;-86
2022/06/01 15:23:45;;;;;;;0.90;0.82;;;;;;;27.08;29.98;100330.41;5360713;33;34182;-86
2022/06/01 15:26:50;;;;;;;2.20;0.82;;;;;;;27.13;29.15;100312.97;5360561;33;34151;-90
2022/06/01 15:40:05;;;;;;;1.83;1.10;;;;;;;26.87;29.59;100318.72;5347458;33;32690;-86
2022/06/01 15:43:08;;;;;;;0.60;0.60;;;;;;;26.98;31.03;100318.63;5360294;33;33903;-86
2022/06/01 15:46:17;;;;;;;0.88;0.85;;;;;;;26.87;29.89;100320.66;5360622;33;33886;-87
2022/06/01 15:49:23;;;;;;;0.45;0.45;;;;;;;26.72;29.77;100320.78;5360155;33;34745;-86
2022/06/01 15:52:27;;;;;;;1.27;0.80;;;;;;;26.51;28.78;100320.91;5361568;33;34454;-86
2022/06/01 15:55:29;;;;;;;0.60;0.60;;;;;;;26.32;28.38;100315.16;5360646;33;34158;-87
2022/06/01 15:58:32;;;;;;;0.73;0.73;;;;;;;26.19;29.10;100324.91;5360547;33;34705;-87
